TimeCST,TemperatureF,Dew PointF,Humidity,Sea Level PressureIn,VisibilityMPH,Wind Direction,Wind SpeedMPH,Gust SpeedMPH,PrecipitationIn,Events,Conditions,WindDirDegrees,DateUTC
12:53 AM,66.0,57.0,73,29.66,10.0,South,15.0,26.5,N/A,,Clear,180,2012-11-10 06:53:00
1:53 AM,66.0,55.9,70,29.65,10.0,South,19.6,27.6,N/A,,Clear,180,2012-11-10 07:53:00
2:53 AM,66.9,55.0,66,29.65,10.0,South,16.1,25.3,N/A,,Clear,180,2012-11-10 08:53:00
3:53 AM,66.0,55.0,68,29.64,10.0,South,19.6,26.5,N/A,,Clear,190,2012-11-10 09:53:00
4:53 AM,66.0,55.0,68,29.64,10.0,South,18.4,27.6,N/A,,Clear,180,2012-11-10 10:53:00
5:53 AM,66.0,55.0,68,29.65,10.0,South,18.4,26.5,N/A,,Clear,180,2012-11-10 11:53:00
6:53 AM,64.9,55.0,70,29.66,10.0,South,13.8,26.5,N/A,,Clear,190,2012-11-10 12:53:00
7:53 AM,66.0,55.0,68,29.68,10.0,South,19.6,28.8,N/A,,Clear,180,2012-11-10 13:53:00
8:53 AM,68.0,55.0,63,29.68,10.0,South,20.7,35.7,N/A,,Clear,190,2012-11-10 14:53:00
9:53 AM,70.0,55.0,59,29.67,10.0,South,19.6,29.9,0.00,Rain,Light Rain,190,2012-11-10 15:53:00
10:53 AM,72.0,55.9,57,29.66,10.0,South,19.6,33.4,0.00,Rain,Light Rain,190,2012-11-10 16:53:00
11:53 AM,69.1,55.9,63,29.64,10.0,South,16.1,31.1,0.00,Rain,Light Rain,180,2012-11-10 17:53:00
12:53 PM,73.9,55.9,53,29.61,10.0,South,24.2,35.7,0.00,Rain,Light Rain,180,2012-11-10 18:53:00
1:53 PM,73.9,55.9,53,29.60,10.0,South,21.9,33.4,0.00,Rain,Light Rain,180,2012-11-10 19:53:00
2:53 PM,73.9,55.9,53,29.58,10.0,South,24.2,32.2,0.00,Rain,Light Rain,170,2012-11-10 20:53:00
3:20 PM,73.4,55.4,53,29.59,10.0,South,18.4,35.7,0.00,Thunderstorm,Overcast,170,2012-11-10 21:20:00
3:35 PM,69.8,57.2,64,29.60,10.0,South,19.6,25.3,0.00,Rain,Light Rain,170,2012-11-10 21:35:00
3:44 PM,71.6,57.2,60,29.61,10.0,South,13.8,24.2,0.00,Thunderstorm,Thunderstorm,180,2012-11-10 21:44:00
3:53 PM,72.0,57.0,59,29.57,10.0,South,21.9,33.4,0.00,Thunderstorm,Thunderstorm,180,2012-11-10 21:53:00
4:05 PM,71.6,55.4,57,29.61,10.0,South,29.9,43.7,0.00,Rain,Light Rain,190,2012-11-10 22:05:00
4:53 PM,71.1,55.9,59,29.57,10.0,South,19.6,36.8,0.00,,Clear,170,2012-11-10 22:53:00
5:53 PM,70.0,55.0,59,29.59,10.0,South,18.4,28.8,N/A,,Clear,180,2012-11-10 23:53:00
6:53 PM,69.1,54.0,58,29.57,10.0,South,21.9,31.1,N/A,,Clear,170,2012-11-11 00:53:00
7:53 PM,69.1,54.0,58,29.56,10.0,South,21.9,36.8,N/A,,Clear,170,2012-11-11 01:53:00
8:53 PM,69.1,53.1,57,29.55,10.0,South,25.3,41.4,N/A,,Clear,170,2012-11-11 02:53:00
9:53 PM,69.8,53.6,56,29.62,10.0,South,24.2,36.8,N/A,,Mostly Cloudy,190,2012-11-11 03:53:00
10:31 PM,68.0,55.4,64,29.66,10.0,WSW,20.7,28.8,0.00,Rain-Thunderstorm,Light Rain,240,2012-11-11 04:31:00
10:53 PM,57.9,55.0,90,29.69,2.5,SW,18.4,29.9,0.23,Rain-Thunderstorm,Heavy Thunderstorms and Rain,220,2012-11-11 04:53:00
11:04 PM,57.2,55.4,94,29.67,5.0,WSW,12.7,23.0,0.03,Rain-Thunderstorm,Rain,240,2012-11-11 05:04:00
11:36 PM,57.2,57.2,100,29.67,4.0,SW,10.4,19.6,0.19,Rain,Heavy Rain,220,2012-11-11 05:36:00
11:43 PM,57.2,57.2,100,29.64,6.0,WSW,17.3,21.9,0.20,Rain-Thunderstorm,Rain,250,2012-11-11 05:43:00
11:53 PM,57.9,57.0,97,29.64,7.0,SSW,10.4,-,0.23,Rain-Thunderstorm,Rain,200,2012-11-11 05:53:00